createdAt,value
2018-09-30T00:01:14.266Z,99136.84
2018-09-30T00:03:41.564Z,99131.99
2018-09-30T00:06:08.912Z,99139.33
2018-09-30T00:08:36.271Z,99131.08
2018-09-30T00:11:04.607Z,99127.64
2018-09-30T00:13:32.038Z,99125.43
2018-09-30T00:15:59.412Z,99132.84
2018-09-30T00:21:34.949Z,99121.56
2018-09-30T00:24:07.863Z,99116.80
2018-09-30T00:26:41.501Z,99117.27
2018-09-30T00:29:08.816Z,99118.16
2018-09-30T00:31:36.228Z,99119.47
2018-09-30T00:34:09.152Z,99112.45
2018-09-30T00:36:37.023Z,99121.99
2018-09-30T00:39:05.537Z,99121.08
2018-09-30T00:41:32.850Z,99116.24
2018-09-30T00:44:00.199Z,99112.40
2018-09-30T00:46:27.488Z,99107.35
2018-09-30T00:48:55.833Z,99104.83
2018-09-30T00:51:23.911Z,99108.70
2018-09-30T00:53:51.222Z,99106.87
2018-09-30T00:56:18.526Z,99112.83
2018-09-30T00:58:45.866Z,99103.19
2018-09-30T01:01:13.330Z,99101.28
2018-09-30T01:03:40.629Z,99102.86
2018-09-30T01:06:07.982Z,99099.75
2018-09-30T01:08:35.335Z,99104.02
2018-09-30T01:11:02.692Z,99093.16
2018-09-30T01:13:30.019Z,99097.93
2018-09-30T01:15:57.423Z,99094.44
2018-09-30T01:18:24.834Z,99086.58
2018-09-30T01:20:52.843Z,99086.13
2018-09-30T01:23:20.452Z,99077.02
2018-09-30T01:25:47.759Z,99077.03
2018-09-30T01:28:15.132Z,99073.97
2018-09-30T01:30:42.513Z,99070.00
2018-09-30T01:33:09.859Z,99076.56
2018-09-30T01:35:37.192Z,99071.80
2018-09-30T01:38:05.153Z,99071.35
2018-09-30T01:40:32.535Z,99063.06
2018-09-30T01:42:59.825Z,99065.21
2018-09-30T01:45:27.176Z,99059.56
2018-09-30T01:47:54.544Z,99061.73
2018-09-30T01:50:21.990Z,99057.84
2018-09-30T01:52:53.092Z,99055.23
2018-09-30T01:55:20.445Z,99052.19
2018-09-30T01:57:47.784Z,99046.48
2018-09-30T02:00:15.337Z,99043.89
2018-09-30T02:02:42.907Z,99041.72
2018-09-30T02:05:10.239Z,99041.79
2018-09-30T02:07:37.620Z,99041.81
2018-09-30T02:10:05.281Z,99038.39
2018-09-30T02:12:32.900Z,99038.85
2018-09-30T02:15:00.392Z,99034.56
2018-09-30T02:17:27.740Z,99028.92
2018-09-30T02:19:55.149Z,99029.36
2018-09-30T02:22:22.520Z,99020.23
2018-09-30T02:24:49.924Z,99024.60
2018-09-30T02:27:17.352Z,99014.23
2018-09-30T02:29:50.233Z,99010.27
2018-09-30T02:32:17.562Z,99017.13
2018-09-30T02:34:45.006Z,99017.05
2018-09-30T02:37:12.318Z,99010.56
2018-09-30T02:39:39.735Z,99012.31
2018-09-30T02:42:07.868Z,99013.66
2018-09-30T02:44:35.755Z,99001.52
2018-09-30T02:47:03.129Z,98994.16
2018-09-30T02:49:31.201Z,98989.81
2018-09-30T02:51:58.580Z,98991.48
2018-09-30T02:54:26.054Z,98988.88
2018-09-30T02:56:53.945Z,98979.33
2018-09-30T02:59:21.317Z,98974.55
2018-09-30T03:01:48.798Z,98979.31
2018-09-30T03:04:17.088Z,98975.38
2018-09-30T03:06:51.386Z,98979.33
2018-09-30T03:09:19.357Z,98976.66
2018-09-30T03:11:48.600Z,98966.60
2018-09-30T03:14:16.449Z,98967.42
2018-09-30T03:16:45.786Z,98965.73
2018-09-30T03:19:13.498Z,98961.39
2018-09-30T03:21:43.945Z,98960.62
2018-09-30T03:24:13.133Z,98958.44
2018-09-30T03:26:42.352Z,98956.63
2018-09-30T03:29:09.980Z,98953.97
2018-09-30T03:31:37.611Z,98950.40
2018-09-30T03:34:04.959Z,98947.59
2018-09-30T03:36:32.323Z,98945.73
2018-09-30T03:38:59.875Z,98941.36
2018-09-30T03:41:27.257Z,98932.73
2018-09-30T03:43:55.622Z,98930.53
2018-09-30T03:46:23.015Z,98934.93
2018-09-30T03:48:51.965Z,98926.69
2018-09-30T03:51:19.387Z,98925.83
2018-09-30T03:53:47.396Z,98925.41
2018-09-30T03:56:14.902Z,98915.06
2018-09-30T03:58:42.346Z,98921.63
2018-09-30T04:01:09.684Z,98914.80
2018-09-30T04:03:37.009Z,98914.42
2018-09-30T04:06:04.324Z,98917.09
2018-09-30T04:08:31.663Z,98912.78
2018-09-30T04:10:58.988Z,98913.72
2018-09-30T04:13:26.281Z,98911.11
2018-09-30T04:15:53.619Z,98899.95
2018-09-30T04:18:21.574Z,98897.41
2018-09-30T04:20:48.932Z,98893.94
2018-09-30T04:23:16.293Z,98884.88
2018-09-30T04:25:43.679Z,98884.89
2018-09-30T04:28:11.098Z,98882.73
2018-09-30T04:30:38.431Z,98879.30
2018-09-30T04:33:06.040Z,98876.31
2018-09-30T04:35:33.485Z,98875.93
2018-09-30T04:38:01.751Z,98873.41
2018-09-30T04:40:29.140Z,98872.06
2018-09-30T04:42:56.453Z,98884.21
2018-09-30T04:45:23.917Z,98878.14
2018-09-30T04:47:53.005Z,98880.92
2018-09-30T04:50:22.023Z,98884.89
2018-09-30T04:52:49.475Z,98880.10
2018-09-30T04:55:16.972Z,98882.25
2018-09-30T04:57:45.394Z,98883.39
2018-09-30T05:00:12.832Z,98889.77
2018-09-30T05:02:40.312Z,98889.66
2018-09-30T05:05:07.808Z,98880.81
2018-09-30T05:07:35.414Z,98893.70
2018-09-30T05:10:03.627Z,98900.06
2018-09-30T05:12:31.898Z,98901.22
2018-09-30T05:15:00.984Z,98903.22
2018-09-30T05:17:28.714Z,98906.08
2018-09-30T05:19:59.241Z,98903.28
2018-09-30T05:22:28.716Z,98910.44
2018-09-30T05:24:56.876Z,98914.14
2018-09-30T05:27:25.138Z,98913.13
2018-09-30T05:29:52.666Z,98920.05
2018-09-30T05:32:21.299Z,98915.73
2018-09-30T05:34:50.055Z,98910.91
2018-09-30T05:37:17.743Z,98905.34
2018-09-30T05:39:45.989Z,98905.38
2018-09-30T05:42:13.459Z,98912.32
2018-09-30T05:44:49.844Z,98904.58
2018-09-30T05:47:17.530Z,98900.71
2018-09-30T05:49:45.133Z,98903.39
2018-09-30T05:52:12.804Z,98902.63
2018-09-30T05:54:42.041Z,98905.69
2018-09-30T05:57:10.101Z,98910.11
2018-09-30T05:59:39.016Z,98904.94
2018-09-30T06:02:08.055Z,98898.00
2018-09-30T06:04:35.613Z,98898.86
2018-09-30T06:07:03.308Z,98895.84
2018-09-30T06:09:33.083Z,98896.37
2018-09-30T06:12:01.138Z,98894.79
2018-09-30T06:14:30.953Z,98888.83
2018-09-30T06:16:58.521Z,98884.66
2018-09-30T06:19:27.438Z,98882.22
2018-09-30T06:21:55.103Z,98886.69
2018-09-30T06:24:24.274Z,98888.56
2018-09-30T06:26:52.128Z,98897.37
2018-09-30T06:29:20.260Z,98888.41
2018-09-30T06:31:48.442Z,98891.98
2018-09-30T06:34:15.975Z,98887.30
2018-09-30T06:36:43.448Z,98889.14
2018-09-30T06:39:11.514Z,98888.34
2018-09-30T06:41:39.057Z,98891.87
2018-09-30T06:44:07.388Z,98890.60
2018-09-30T06:46:34.781Z,98891.97
2018-09-30T06:49:02.205Z,98889.81
2018-09-30T06:51:29.661Z,98888.07
2018-09-30T06:53:57.124Z,98890.22
2018-09-30T06:56:24.579Z,98884.03
2018-09-30T06:58:52.542Z,98889.50
2018-09-30T07:01:19.968Z,98888.36
2018-09-30T07:03:47.350Z,98885.34
2018-09-30T07:06:15.303Z,98884.75
2018-09-30T07:08:43.725Z,98884.62
2018-09-30T07:11:11.177Z,98885.52
2018-09-30T07:13:39.327Z,98885.57
2018-09-30T07:16:07.372Z,98878.91
2018-09-30T07:18:35.512Z,98888.23
2018-09-30T07:21:04.367Z,98875.95
2018-09-30T07:23:31.789Z,98878.59
2018-09-30T07:25:59.229Z,98880.66
2018-09-30T07:28:26.697Z,98877.22
2018-09-30T07:30:55.098Z,98875.83
2018-09-30T07:33:22.568Z,98878.50
2018-09-30T07:35:50.017Z,98877.75
2018-09-30T07:38:18.584Z,98872.30
2018-09-30T07:40:47.464Z,98865.78
2018-09-30T07:43:16.771Z,98860.78
2018-09-30T07:45:45.602Z,98862.65
2018-09-30T07:48:13.594Z,98852.88
2018-09-30T07:50:42.331Z,98862.38
2018-09-30T07:53:10.085Z,98856.23
2018-09-30T07:55:37.573Z,98855.88
2018-09-30T07:58:05.863Z,98855.78
2018-09-30T08:00:33.382Z,98840.73
2018-09-30T08:03:00.883Z,98840.36
2018-09-30T08:05:29.157Z,98836.77
2018-09-30T08:07:56.901Z,98823.11
2018-09-30T08:10:24.602Z,98822.02
2018-09-30T08:12:52.118Z,98817.17
2018-09-30T08:15:19.854Z,98819.93
2018-09-30T08:17:47.763Z,98812.33
2018-09-30T08:20:15.474Z,98810.45
2018-09-30T08:22:43.071Z,98807.27
2018-09-30T08:25:11.714Z,98800.77
2018-09-30T08:27:39.358Z,98790.02
2018-09-30T08:30:07.695Z,98782.20
2018-09-30T08:32:37.168Z,98777.42
2018-09-30T08:35:05.127Z,98770.94
2018-09-30T08:37:38.946Z,98771.63
2018-09-30T08:40:06.571Z,98765.45
2018-09-30T08:42:34.332Z,98759.33
2018-09-30T08:45:02.620Z,98762.27
2018-09-30T08:47:30.233Z,98750.02
2018-09-30T08:49:57.820Z,98745.23
2018-09-30T08:52:25.450Z,98742.09
2018-09-30T08:54:53.117Z,98749.97
2018-09-30T08:57:21.272Z,98749.72
2018-09-30T08:59:48.876Z,98740.81
2018-09-30T09:02:18.029Z,98731.94
2018-09-30T09:04:45.631Z,98725.19
2018-09-30T09:07:16.703Z,98730.02
2018-09-30T09:09:51.727Z,98728.02
2018-09-30T09:12:19.314Z,98723.20
2018-09-30T09:14:48.826Z,98729.03
2018-09-30T09:17:16.480Z,98715.87
2018-09-30T09:19:48.677Z,98721.06
2018-09-30T09:22:18.046Z,98723.18
2018-09-30T09:24:50.520Z,98727.64
2018-09-30T09:27:24.453Z,98730.45
2018-09-30T09:29:54.673Z,98734.05
2018-09-30T09:32:27.449Z,98728.98
2018-09-30T09:34:56.080Z,98729.27
2018-09-30T09:37:23.669Z,98724.04
2018-09-30T09:39:53.368Z,98716.10
2018-09-30T09:42:21.441Z,98712.05
2018-09-30T09:44:50.679Z,98711.06
2018-09-30T09:47:23.792Z,98708.02
2018-09-30T09:49:53.403Z,98717.36
2018-09-30T09:52:21.501Z,98715.38
2018-09-30T09:54:51.128Z,98712.98
2018-09-30T09:57:19.094Z,98717.73
2018-09-30T09:59:46.943Z,98710.09
2018-09-30T10:02:14.538Z,98709.16
2018-09-30T10:04:43.291Z,98715.80
2018-09-30T10:07:10.681Z,98701.83
2018-09-30T10:09:38.817Z,98704.45
2018-09-30T10:12:06.658Z,98703.84
2018-09-30T10:14:35.966Z,98697.66
2018-09-30T10:17:03.763Z,98689.23
2018-09-30T10:19:33.481Z,98684.75
2018-09-30T10:22:01.843Z,98675.77
2018-09-30T10:24:30.297Z,98678.52
2018-09-30T10:26:59.110Z,98680.06
2018-09-30T10:29:26.902Z,98662.97
2018-09-30T10:31:55.826Z,98659.75
2018-09-30T10:34:25.315Z,98664.61
2018-09-30T10:36:56.322Z,98657.45
2018-09-30T10:39:23.917Z,98659.27
2018-09-30T10:41:52.005Z,98655.95
2018-09-30T10:44:20.618Z,98651.05
2018-09-30T10:46:48.535Z,98649.81
2018-09-30T10:49:16.056Z,98645.10
2018-09-30T10:51:44.388Z,98630.95
2018-09-30T10:54:12.822Z,98622.95
2018-09-30T10:56:40.637Z,98623.27
2018-09-30T10:59:21.178Z,98624.28
2018-09-30T11:01:49.884Z,98626.38
2018-09-30T11:04:30.834Z,98627.63
2018-09-30T11:07:05.903Z,98621.97
2018-09-30T11:09:34.436Z,98615.00
2018-09-30T11:12:05.397Z,98609.59
2018-09-30T11:14:37.481Z,98613.98
2018-09-30T11:17:08.789Z,98600.67
2018-09-30T11:19:40.873Z,98591.88
2018-09-30T11:22:09.904Z,98590.41
2018-09-30T11:24:43.331Z,98578.11
2018-09-30T11:27:12.522Z,98577.93
2018-09-30T11:29:46.963Z,98575.63
2018-09-30T11:32:21.462Z,98573.88
2018-09-30T11:34:50.140Z,98565.03
2018-09-30T11:37:29.128Z,98561.16
2018-09-30T11:40:11.633Z,98555.41
2018-09-30T11:42:52.117Z,98553.62
2018-09-30T11:45:32.630Z,98543.99
2018-09-30T11:48:02.588Z,98540.39
2018-09-30T11:50:32.185Z,98529.45
2018-09-30T11:53:01.313Z,98527.70
2018-09-30T11:55:29.361Z,98523.63
2018-09-30T11:58:06.177Z,98524.06
2018-09-30T12:00:35.858Z,98513.29
2018-09-30T12:03:04.539Z,98509.23
2018-09-30T12:05:37.727Z,98506.19
2018-09-30T12:08:07.173Z,98496.02
2018-09-30T12:10:38.584Z,98504.85
2018-09-30T12:13:08.633Z,98495.59
2018-09-30T12:15:38.828Z,98491.27
2018-09-30T12:18:07.166Z,98485.58
2018-09-30T12:20:45.437Z,98481.94
2018-09-30T12:23:18.446Z,98472.55
2018-09-30T12:25:46.169Z,98480.12
2018-09-30T12:28:18.370Z,98467.80
2018-09-30T12:30:47.700Z,98466.58
2018-09-30T12:33:20.873Z,98455.28
2018-09-30T12:35:49.457Z,98447.30
2018-09-30T12:38:18.209Z,98445.48
2018-09-30T12:40:46.421Z,98450.81
2018-09-30T12:43:14.211Z,98437.05
2018-09-30T12:45:45.062Z,98442.18
2018-09-30T12:48:16.549Z,98439.57
2018-09-30T12:50:45.043Z,98434.48
2018-09-30T12:53:16.709Z,98429.56
2018-09-30T12:55:46.489Z,98425.49
2018-09-30T12:58:19.566Z,98430.81
2018-09-30T13:00:52.962Z,98430.25
2018-09-30T13:03:23.245Z,98420.90
2018-09-30T13:05:51.741Z,98422.54
2018-09-30T13:08:23.119Z,98409.20
2018-09-30T13:10:57.954Z,98410.91
2018-09-30T13:13:33.377Z,98407.34
2018-09-30T13:16:10.829Z,98408.04
2018-09-30T13:18:49.887Z,98397.95
2018-09-30T13:21:28.721Z,98390.10
2018-09-30T13:24:04.556Z,98389.70
2018-09-30T13:26:37.439Z,98385.47
2018-09-30T13:29:12.969Z,98386.05
2018-09-30T13:31:46.812Z,98386.17
2018-09-30T13:34:21.274Z,98382.94
2018-09-30T13:37:02.143Z,98377.80
2018-09-30T13:39:39.381Z,98373.31
2018-09-30T13:42:15.104Z,98373.43
2018-09-30T13:44:49.396Z,98367.50
2018-09-30T13:47:29.661Z,98363.39
2018-09-30T13:50:04.719Z,98364.23
2018-09-30T13:56:06.662Z,98356.25
2018-09-30T13:58:44.205Z,98348.06
2018-09-30T14:01:18.812Z,98349.86
2018-09-30T14:03:47.364Z,98339.47
2018-09-30T14:06:15.162Z,98337.86
2018-09-30T14:08:43.085Z,98333.39
2018-09-30T14:11:10.611Z,98332.13
2018-09-30T14:13:39.926Z,98328.27
2018-09-30T14:16:09.757Z,98327.41
2018-09-30T14:18:38.500Z,98325.17
2018-09-30T14:21:05.828Z,98319.30
2018-09-30T14:23:35.212Z,98316.27
2018-09-30T14:26:03.697Z,98317.85
2018-09-30T14:28:32.381Z,98311.89
2018-09-30T14:31:00.072Z,98312.57
2018-09-30T14:33:29.430Z,98301.77
2018-09-30T14:35:56.779Z,98305.19
2018-09-30T14:38:24.537Z,98307.58
2018-09-30T14:40:52.321Z,98306.58
2018-09-30T14:43:21.098Z,98298.55
2018-09-30T14:45:52.924Z,98301.17
2018-09-30T14:48:21.077Z,98297.92
2018-09-30T14:50:48.588Z,98291.88
2018-09-30T14:53:16.410Z,98286.11
2018-09-30T14:55:44.020Z,98284.48
2018-09-30T14:58:11.956Z,98279.45
2018-09-30T15:00:39.609Z,98277.91
2018-09-30T15:03:07.128Z,98272.97
2018-09-30T15:05:35.363Z,98270.55
2018-09-30T15:08:02.967Z,98268.33
2018-09-30T15:10:30.711Z,98271.21
2018-09-30T15:12:58.324Z,98266.13
2018-09-30T15:15:26.591Z,98258.03
2018-09-30T15:17:57.389Z,98264.66
2018-09-30T15:20:25.530Z,98255.60
2018-09-30T15:22:54.771Z,98252.41
2018-09-30T15:25:22.548Z,98246.50
2018-09-30T15:27:50.527Z,98251.53
2018-09-30T15:30:18.321Z,98249.22
2018-09-30T15:32:46.436Z,98243.36
2018-09-30T15:35:15.425Z,98240.37
2018-09-30T15:37:46.112Z,98236.34
2018-09-30T15:40:15.028Z,98232.11
2018-09-30T15:42:43.062Z,98232.36
2018-09-30T15:45:11.152Z,98229.45
2018-09-30T15:47:38.836Z,98237.34
2018-09-30T15:50:08.648Z,98235.80
2018-09-30T15:52:38.370Z,98231.19
2018-09-30T15:55:07.148Z,98236.74
2018-09-30T15:57:37.938Z,98232.44
2018-09-30T16:00:06.413Z,98229.31
2018-09-30T16:02:34.041Z,98234.78
2018-09-30T16:05:02.753Z,98233.37
2018-09-30T16:07:31.185Z,98227.30
2018-09-30T16:10:02.450Z,98225.88
2018-09-30T16:12:30.591Z,98227.03
2018-09-30T16:14:58.189Z,98220.78
2018-09-30T16:17:25.683Z,98223.42
2018-09-30T16:19:54.474Z,98229.09
2018-09-30T16:22:22.008Z,98226.35
2018-09-30T16:24:49.537Z,98228.00
2018-09-30T16:27:20.109Z,98230.13
2018-09-30T16:29:48.337Z,98229.68
2018-09-30T16:32:16.488Z,98224.98
2018-09-30T16:34:43.861Z,98228.27
2018-09-30T16:37:11.292Z,98230.55
2018-09-30T16:39:40.391Z,98228.29
2018-09-30T16:42:08.874Z,98238.03
2018-09-30T16:44:36.516Z,98238.29
2018-09-30T16:47:04.870Z,98241.59
2018-09-30T16:49:32.550Z,98240.73
2018-09-30T16:52:00.812Z,98242.59
2018-09-30T16:54:29.342Z,98240.22
2018-09-30T16:56:56.767Z,98242.00
2018-09-30T16:59:24.733Z,98243.80
2018-09-30T17:01:52.364Z,98249.63
2018-09-30T17:04:19.864Z,98249.27
2018-09-30T17:06:48.360Z,98248.22
2018-09-30T17:09:16.138Z,98246.53
2018-09-30T17:11:43.622Z,98251.46
2018-09-30T17:14:10.982Z,98246.51
2018-09-30T17:16:38.481Z,98253.48
2018-09-30T17:19:05.885Z,98244.89
2018-09-30T17:21:33.340Z,98246.69
2018-09-30T17:24:00.662Z,98246.29
2018-09-30T17:26:27.995Z,98248.23
2018-09-30T17:28:55.373Z,98248.98
2018-09-30T17:31:22.851Z,98245.52
2018-09-30T17:33:50.177Z,98240.48
2018-09-30T17:36:17.496Z,98247.34
2018-09-30T17:38:44.946Z,98252.91
2018-09-30T17:41:12.319Z,98256.84
2018-09-30T17:43:39.855Z,98249.63
2018-09-30T17:46:07.274Z,98247.45
2018-09-30T17:48:34.630Z,98243.97
2018-09-30T17:51:02.709Z,98251.02
2018-09-30T17:53:30.341Z,98246.09
2018-09-30T17:55:57.682Z,98244.78
2018-09-30T17:58:25.045Z,98245.97
2018-09-30T18:00:52.389Z,98250.05
2018-09-30T18:03:19.860Z,98242.75
2018-09-30T18:05:47.378Z,98246.21
2018-09-30T18:08:14.926Z,98248.14
2018-09-30T18:10:42.329Z,98238.91
2018-09-30T18:13:10.106Z,98243.75
2018-09-30T18:15:38.107Z,98243.77
2018-09-30T18:18:05.652Z,98241.77
2018-09-30T18:20:32.918Z,98241.52
2018-09-30T18:23:05.838Z,98241.75
2018-09-30T18:25:36.451Z,98235.81
2018-09-30T18:28:08.030Z,98241.06
2018-09-30T18:30:35.473Z,98237.36
2018-09-30T18:33:07.306Z,98234.43
2018-09-30T18:35:47.431Z,98229.72
2018-09-30T18:38:22.598Z,98228.96
2018-09-30T18:40:51.768Z,98223.90
2018-09-30T18:43:21.446Z,98223.63
2018-09-30T18:45:52.668Z,98229.42
2018-09-30T18:48:24.462Z,98238.33
2018-09-30T18:50:56.073Z,98227.92
2018-09-30T18:53:29.715Z,98228.95
2018-09-30T18:56:00.950Z,98232.72
2018-09-30T18:58:31.595Z,98223.03
2018-09-30T19:01:04.605Z,98227.89
2018-09-30T19:03:39.486Z,98226.02
2018-09-30T19:06:08.669Z,98226.52
2018-09-30T19:08:38.021Z,98221.27
2018-09-30T19:11:10.440Z,98216.71
2018-09-30T19:13:38.005Z,98213.27
2018-09-30T19:16:08.400Z,98211.36
2018-09-30T19:18:45.078Z,98210.17
2018-09-30T19:21:14.540Z,98208.86
2018-09-30T19:23:47.860Z,98205.88
2018-09-30T19:26:15.196Z,98202.66
2018-09-30T19:28:51.320Z,98195.41
2018-09-30T19:31:20.680Z,98204.66
2018-09-30T19:33:48.106Z,98197.20
2018-09-30T19:36:15.485Z,98195.08
2018-09-30T19:38:42.851Z,98198.97
2018-09-30T19:41:10.258Z,98194.13
2018-09-30T19:43:37.921Z,98188.85
2018-09-30T19:46:05.429Z,98193.85
2018-09-30T19:48:32.784Z,98192.00
2018-09-30T19:51:00.139Z,98188.39
2018-09-30T19:53:27.474Z,98181.84
2018-09-30T19:55:54.907Z,98186.96
2018-09-30T19:58:22.243Z,98189.46
2018-09-30T20:00:49.615Z,98183.57
2018-09-30T20:03:17.183Z,98181.55
2018-09-30T20:05:44.510Z,98177.10
2018-09-30T20:08:12.542Z,98177.80
2018-09-30T20:10:40.160Z,98170.17
2018-09-30T20:13:07.632Z,98166.77
2018-09-30T20:15:34.955Z,98165.31
2018-09-30T20:18:02.295Z,98171.60
2018-09-30T20:20:29.939Z,98165.66
2018-09-30T20:22:57.259Z,98163.14
2018-09-30T20:25:24.584Z,98160.48
2018-09-30T20:27:52.048Z,98163.27
2018-09-30T20:30:19.396Z,98157.02
2018-09-30T20:32:47.040Z,98157.88
2018-09-30T20:35:14.931Z,98157.88
2018-09-30T20:37:44.915Z,98157.05
2018-09-30T20:40:13.917Z,98153.53
2018-09-30T20:42:44.678Z,98158.58
2018-09-30T20:45:13.323Z,98147.45
2018-09-30T20:47:41.870Z,98148.96
2018-09-30T20:50:09.981Z,98143.77
2018-09-30T20:52:38.290Z,98141.86
2018-09-30T20:55:06.362Z,98136.81
2018-09-30T20:57:33.805Z,98134.50
2018-09-30T21:00:02.879Z,98127.84
2018-09-30T21:02:30.585Z,98122.69
2018-09-30T21:05:00.688Z,98116.92
2018-09-30T21:12:26.505Z,98122.38
2018-09-30T21:14:54.440Z,98127.13
2018-09-30T21:17:22.688Z,98133.95
2018-09-30T21:19:51.015Z,98126.80
2018-09-30T21:22:18.532Z,98128.53
2018-09-30T21:24:46.629Z,98136.38
2018-09-30T21:27:15.121Z,98137.05
2018-09-30T21:29:43.502Z,98138.83
2018-09-30T21:32:11.266Z,98140.17
2018-09-30T21:34:40.469Z,98138.06
2018-09-30T21:37:08.674Z,98132.41
2018-09-30T21:39:38.108Z,98136.00
2018-09-30T21:42:07.115Z,98139.06
2018-09-30T21:44:35.475Z,98131.28
2018-09-30T21:47:03.001Z,98125.13
2018-09-30T21:49:31.011Z,98124.66
2018-09-30T21:51:58.461Z,98114.57
2018-09-30T21:54:26.303Z,98113.92
2018-09-30T21:56:53.648Z,98110.23
2018-09-30T21:59:22.690Z,98122.34
2018-09-30T22:01:50.307Z,98121.11
2018-09-30T22:04:17.572Z,98117.69
2018-09-30T22:06:44.926Z,98119.98
2018-09-30T22:09:12.802Z,98120.87
2018-09-30T22:11:40.980Z,98123.33
2018-09-30T22:14:08.320Z,98118.66
2018-09-30T22:16:35.789Z,98116.61
2018-09-30T22:19:04.035Z,98108.48
2018-09-30T22:21:31.599Z,98118.67
2018-09-30T22:23:59.353Z,98114.56
2018-09-30T22:26:26.756Z,98114.19
2018-09-30T22:28:54.238Z,98107.38
2018-09-30T22:31:58.179Z,98104.88
2018-09-30T22:34:27.939Z,98102.25
2018-09-30T22:36:57.125Z,98101.95
2018-09-30T22:39:27.167Z,98105.56
2018-09-30T22:41:55.268Z,98111.61
2018-09-30T22:44:23.384Z,98112.78
2018-09-30T22:46:51.546Z,98114.78
2018-09-30T22:49:27.551Z,98117.45
2018-09-30T22:51:58.081Z,98114.02
2018-09-30T22:54:26.284Z,98105.52
2018-09-30T22:56:57.867Z,98110.91
2018-09-30T22:59:29.316Z,98115.75
2018-09-30T23:02:05.317Z,98111.44
2018-09-30T23:04:35.313Z,98109.43
2018-09-30T23:07:04.231Z,98112.12
2018-09-30T23:09:32.533Z,98117.41
2018-09-30T23:12:01.428Z,98107.47
2018-09-30T23:14:31.318Z,98100.90
2018-09-30T23:16:58.699Z,98103.84
2018-09-30T23:19:26.777Z,98104.68
2018-09-30T23:21:56.976Z,98106.71
2018-09-30T23:24:24.553Z,98103.66
2018-09-30T23:26:52.798Z,98111.05
2018-09-30T23:29:20.239Z,98109.72
2018-09-30T23:31:48.952Z,98107.91
2018-09-30T23:34:17.005Z,98111.36
2018-09-30T23:36:45.338Z,98104.77
2018-09-30T23:39:13.332Z,98103.77
2018-09-30T23:41:44.224Z,98098.42
2018-09-30T23:44:12.435Z,98106.26
2018-09-30T23:46:40.488Z,98107.21
2018-09-30T23:49:09.034Z,98112.99
2018-09-30T23:51:37.693Z,98112.24
2018-09-30T23:54:05.576Z,98119.35
2018-09-30T23:56:33.554Z,98116.31
2018-09-30T23:59:03.114Z,98115.48
